sensor_id;sensor_type;location;lat;lon;timestamp;P1;durP1;ratioP1;P2;durP2;ratioP2
44862;SDS011;30597;49.628;10.850;2023-11-21T00:00:29;2.70;;;1.97;;
44862;SDS011;30597;49.628;10.850;2023-11-21T00:02:54;1.93;;;1.83;;
44862;SDS011;30597;49.628;10.850;2023-11-21T00:05:20;2.30;;;2.13;;
44862;SDS011;30597;49.628;10.850;2023-11-21T00:07:48;2.70;;;2.00;;
44862;SDS011;30597;49.628;10.850;2023-11-21T00:10:14;2.00;;;1.80;;
44862;SDS011;30597;49.628;10.850;2023-11-21T00:12:41;2.63;;;2.10;;
44862;SDS011;30597;49.628;10.850;2023-11-21T00:15:07;2.47;;;1.90;;
44862;SDS011;30597;49.628;10.850;2023-11-21T00:17:36;2.87;;;2.20;;
44862;SDS011;30597;49.628;10.850;2023-11-21T00:20:03;2.43;;;1.80;;
44862;SDS011;30597;49.628;10.850;2023-11-21T00:22:31;1.80;;;1.70;;
44862;SDS011;30597;49.628;10.850;2023-11-21T00:24:58;1.63;;;1.50;;
44862;SDS011;30597;49.628;10.850;2023-11-21T00:27:23;2.03;;;1.90;;
44862;SDS011;30597;49.628;10.850;2023-11-21T00:29:49;2.30;;;1.93;;
44862;SDS011;30597;49.628;10.850;2023-11-21T00:32:14;3.73;;;2.27;;
44862;SDS011;30597;49.628;10.850;2023-11-21T00:34:40;2.10;;;2.00;;
44862;SDS011;30597;49.628;10.850;2023-11-21T00:37:05;2.20;;;2.00;;
44862;SDS011;30597;49.628;10.850;2023-11-21T00:39:32;1.73;;;1.60;;
44862;SDS011;30597;49.628;10.850;2023-11-21T00:42:00;2.20;;;1.57;;
44862;SDS011;30597;49.628;10.850;2023-11-21T00:44:27;1.83;;;1.73;;
44862;SDS011;30597;49.628;10.850;2023-11-21T00:46:52;1.63;;;1.30;;
44862;SDS011;30597;49.628;10.850;2023-11-21T00:49:18;1.87;;;1.73;;
44862;SDS011;30597;49.628;10.850;2023-11-21T00:51:43;1.83;;;1.60;;
44862;SDS011;30597;49.628;10.850;2023-11-21T00:54:09;2.00;;;1.80;;
44862;SDS011;30597;49.628;10.850;2023-11-21T00:56:34;1.50;;;1.40;;
44862;SDS011;30597;49.628;10.850;2023-11-21T00:59:00;2.33;;;1.60;;
44862;SDS011;30597;49.628;10.850;2023-11-21T01:01:26;2.50;;;2.30;;
44862;SDS011;30597;49.628;10.850;2023-11-21T01:03:52;2.30;;;1.67;;
44862;SDS011;30597;49.628;10.850;2023-11-21T01:06:19;1.77;;;1.60;;
44862;SDS011;30597;49.628;10.850;2023-11-21T01:08:44;1.80;;;1.70;;
44862;SDS011;30597;49.628;10.850;2023-11-21T01:11:10;1.77;;;1.50;;
44862;SDS011;30597;49.628;10.850;2023-11-21T01:13:37;2.90;;;2.20;;
44862;SDS011;30597;49.628;10.850;2023-11-21T01:16:04;1.60;;;1.50;;
44862;SDS011;30597;49.628;10.850;2023-11-21T01:18:31;2.00;;;1.73;;
44862;SDS011;30597;49.628;10.850;2023-11-21T01:20:57;2.03;;;1.67;;
44862;SDS011;30597;49.628;10.850;2023-11-21T01:23:22;1.57;;;1.33;;
44862;SDS011;30597;49.628;10.850;2023-11-21T01:25:49;1.70;;;1.60;;
44862;SDS011;30597;49.628;10.850;2023-11-21T01:28:16;2.50;;;1.70;;
44862;SDS011;30597;49.628;10.850;2023-11-21T01:30:42;1.83;;;1.63;;
44862;SDS011;30597;49.628;10.850;2023-11-21T01:33:08;2.53;;;1.63;;
44862;SDS011;30597;49.628;10.850;2023-11-21T01:35:33;1.57;;;1.47;;
44862;SDS011;30597;49.628;10.850;2023-11-21T01:37:59;1.53;;;1.43;;
44862;SDS011;30597;49.628;10.850;2023-11-21T01:40:24;1.73;;;1.50;;
44862;SDS011;30597;49.628;10.850;2023-11-21T01:42:50;2.00;;;1.80;;
44862;SDS011;30597;49.628;10.850;2023-11-21T01:45:16;2.23;;;1.80;;
44862;SDS011;30597;49.628;10.850;2023-11-21T01:47:43;2.33;;;1.70;;
44862;SDS011;30597;49.628;10.850;2023-11-21T01:50:12;1.50;;;1.40;;
44862;SDS011;30597;49.628;10.850;2023-11-21T01:52:41;1.47;;;1.37;;
44862;SDS011;30597;49.628;10.850;2023-11-21T01:55:08;1.77;;;1.23;;
44862;SDS011;30597;49.628;10.850;2023-11-21T01:57:35;1.90;;;1.20;;
44862;SDS011;30597;49.628;10.850;2023-11-21T02:00:04;3.23;;;1.60;;
44862;SDS011;30597;49.628;10.850;2023-11-21T02:02:44;1.60;;;1.50;;
44862;SDS011;30597;49.628;10.850;2023-11-21T02:05:17;1.60;;;1.50;;
44862;SDS011;30597;49.628;10.850;2023-11-21T02:07:43;1.50;;;1.40;;
44862;SDS011;30597;49.628;10.850;2023-11-21T02:10:10;2.80;;;1.60;;
44862;SDS011;30597;49.628;10.850;2023-11-21T02:12:39;1.33;;;1.23;;
44862;SDS011;30597;49.628;10.850;2023-11-21T02:15:05;1.73;;;1.40;;
44862;SDS011;30597;49.628;10.850;2023-11-21T02:17:39;1.60;;;1.40;;
44862;SDS011;30597;49.628;10.850;2023-11-21T02:20:08;1.77;;;1.60;;
44862;SDS011;30597;49.628;10.850;2023-11-21T02:22:40;1.87;;;1.60;;
44862;SDS011;30597;49.628;10.850;2023-11-21T02:25:07;1.80;;;1.53;;
44862;SDS011;30597;49.628;10.850;2023-11-21T02:27:35;1.60;;;1.23;;
44862;SDS011;30597;49.628;10.850;2023-11-21T02:30:02;1.50;;;1.30;;
44862;SDS011;30597;49.628;10.850;2023-11-21T02:32:29;1.43;;;1.33;;
44862;SDS011;30597;49.628;10.850;2023-11-21T02:34:56;1.90;;;1.40;;
44862;SDS011;30597;49.628;10.850;2023-11-21T02:37:26;1.40;;;1.30;;
44862;SDS011;30597;49.628;10.850;2023-11-21T02:39:52;1.57;;;1.37;;
44862;SDS011;30597;49.628;10.850;2023-11-21T02:42:17;1.57;;;1.47;;
44862;SDS011;30597;49.628;10.850;2023-11-21T02:44:43;1.53;;;1.43;;
44862;SDS011;30597;49.628;10.850;2023-11-21T02:47:09;1.60;;;1.33;;
44862;SDS011;30597;49.628;10.850;2023-11-21T02:49:35;1.60;;;1.50;;
44862;SDS011;30597;49.628;10.850;2023-11-21T02:52:00;1.40;;;1.30;;
44862;SDS011;30597;49.628;10.850;2023-11-21T02:54:28;1.37;;;1.27;;
44862;SDS011;30597;49.628;10.850;2023-11-21T02:56:54;1.80;;;1.40;;
44862;SDS011;30597;49.628;10.850;2023-11-21T02:59:19;1.60;;;1.30;;
44862;SDS011;30597;49.628;10.850;2023-11-21T03:01:45;1.90;;;1.37;;
44862;SDS011;30597;49.628;10.850;2023-11-21T03:04:11;1.40;;;1.30;;
44862;SDS011;30597;49.628;10.850;2023-11-21T03:06:42;1.57;;;1.40;;
44862;SDS011;30597;49.628;10.850;2023-11-21T03:09:09;1.93;;;1.70;;
44862;SDS011;30597;49.628;10.850;2023-11-21T03:11:34;1.30;;;1.20;;
44862;SDS011;30597;49.628;10.850;2023-11-21T03:14:00;1.40;;;1.30;;
44862;SDS011;30597;49.628;10.850;2023-11-21T03:16:26;1.70;;;1.60;;
44862;SDS011;30597;49.628;10.850;2023-11-21T03:18:51;1.07;;;0.97;;
44862;SDS011;30597;49.628;10.850;2023-11-21T03:21:17;1.60;;;1.50;;
44862;SDS011;30597;49.628;10.850;2023-11-21T03:23:42;0.97;;;0.97;;
44862;SDS011;30597;49.628;10.850;2023-11-21T03:26:11;1.93;;;1.27;;
44862;SDS011;30597;49.628;10.850;2023-11-21T03:28:38;1.17;;;1.07;;
44862;SDS011;30597;49.628;10.850;2023-11-21T03:31:03;1.50;;;1.40;;
44862;SDS011;30597;49.628;10.850;2023-11-21T03:33:29;1.73;;;1.37;;
44862;SDS011;30597;49.628;10.850;2023-11-21T03:35:54;1.43;;;1.33;;
44862;SDS011;30597;49.628;10.850;2023-11-21T03:38:20;1.33;;;1.23;;
44862;SDS011;30597;49.628;10.850;2023-11-21T03:40:45;1.30;;;1.20;;
44862;SDS011;30597;49.628;10.850;2023-11-21T03:43:12;1.30;;;1.20;;
44862;SDS011;30597;49.628;10.850;2023-11-21T03:45:38;2.30;;;1.57;;
44862;SDS011;30597;49.628;10.850;2023-11-21T03:48:05;1.30;;;1.20;;
44862;SDS011;30597;49.628;10.850;2023-11-21T03:50:31;1.27;;;1.17;;
44862;SDS011;30597;49.628;10.850;2023-11-21T03:52:57;1.50;;;1.40;;
44862;SDS011;30597;49.628;10.850;2023-11-21T03:55:22;1.90;;;1.23;;
44862;SDS011;30597;49.628;10.850;2023-11-21T03:57:50;1.40;;;1.30;;
44862;SDS011;30597;49.628;10.850;2023-11-21T04:00:16;1.20;;;1.10;;
44862;SDS011;30597;49.628;10.850;2023-11-21T04:02:42;1.53;;;1.30;;
44862;SDS011;30597;49.628;10.850;2023-11-21T04:05:08;1.30;;;1.10;;
44862;SDS011;30597;49.628;10.850;2023-11-21T04:07:35;1.17;;;1.07;;
44862;SDS011;30597;49.628;10.850;2023-11-21T04:10:02;1.80;;;1.27;;
44862;SDS011;30597;49.628;10.850;2023-11-21T04:12:28;1.30;;;1.20;;
44862;SDS011;30597;49.628;10.850;2023-11-21T04:14:53;1.50;;;1.30;;
44862;SDS011;30597;49.628;10.850;2023-11-21T04:17:19;1.33;;;1.23;;
44862;SDS011;30597;49.628;10.850;2023-11-21T04:19:45;3.13;;;1.40;;
44862;SDS011;30597;49.628;10.850;2023-11-21T04:22:11;1.80;;;1.30;;
44862;SDS011;30597;49.628;10.850;2023-11-21T04:24:37;1.53;;;1.20;;
44862;SDS011;30597;49.628;10.850;2023-11-21T04:27:03;1.23;;;1.10;;
44862;SDS011;30597;49.628;10.850;2023-11-21T04:29:29;1.30;;;1.20;;
44862;SDS011;30597;49.628;10.850;2023-11-21T04:31:55;1.10;;;1.00;;
44862;SDS011;30597;49.628;10.850;2023-11-21T04:34:20;1.57;;;1.23;;
44862;SDS011;30597;49.628;10.850;2023-11-21T04:36:47;1.27;;;1.17;;
44862;SDS011;30597;49.628;10.850;2023-11-21T04:39:12;1.33;;;1.23;;
44862;SDS011;30597;49.628;10.850;2023-11-21T04:41:38;1.50;;;1.40;;
44862;SDS011;30597;49.628;10.850;2023-11-21T04:44:07;1.37;;;1.20;;
44862;SDS011;30597;49.628;10.850;2023-11-21T04:46:33;1.33;;;1.23;;
44862;SDS011;30597;49.628;10.850;2023-11-21T04:48:59;1.43;;;1.13;;
44862;SDS011;30597;49.628;10.850;2023-11-21T04:51:24;1.47;;;1.37;;
44862;SDS011;30597;49.628;10.850;2023-11-21T04:53:50;1.53;;;1.37;;
44862;SDS011;30597;49.628;10.850;2023-11-21T04:56:16;1.30;;;1.20;;
44862;SDS011;30597;49.628;10.850;2023-11-21T04:58:41;1.47;;;1.37;;
44862;SDS011;30597;49.628;10.850;2023-11-21T05:01:07;1.67;;;1.57;;
44862;SDS011;30597;49.628;10.850;2023-11-21T05:03:33;1.30;;;1.20;;
44862;SDS011;30597;49.628;10.850;2023-11-21T05:06:02;1.40;;;1.20;;
44862;SDS011;30597;49.628;10.850;2023-11-21T05:08:30;1.83;;;1.73;;
44862;SDS011;30597;49.628;10.850;2023-11-21T05:10:56;1.70;;;1.57;;
44862;SDS011;30597;49.628;10.850;2023-11-21T05:13:22;1.70;;;1.60;;
44862;SDS011;30597;49.628;10.850;2023-11-21T05:15:52;1.20;;;1.10;;
44862;SDS011;30597;49.628;10.850;2023-11-21T05:18:19;1.40;;;1.30;;
44862;SDS011;30597;49.628;10.850;2023-11-21T05:20:44;1.67;;;1.57;;
44862;SDS011;30597;49.628;10.850;2023-11-21T05:23:10;1.40;;;1.30;;
44862;SDS011;30597;49.628;10.850;2023-11-21T05:25:35;1.40;;;1.30;;
44862;SDS011;30597;49.628;10.850;2023-11-21T05:28:01;1.73;;;1.63;;
44862;SDS011;30597;49.628;10.850;2023-11-21T05:30:28;1.27;;;1.10;;
44862;SDS011;30597;49.628;10.850;2023-11-21T05:32:53;1.30;;;1.20;;
44862;SDS011;30597;49.628;10.850;2023-11-21T05:35:19;1.50;;;1.40;;
44862;SDS011;30597;49.628;10.850;2023-11-21T05:37:45;1.70;;;1.60;;
44862;SDS011;30597;49.628;10.850;2023-11-21T05:40:10;1.30;;;1.20;;
44862;SDS011;30597;49.628;10.850;2023-11-21T05:42:38;1.57;;;1.47;;
44862;SDS011;30597;49.628;10.850;2023-11-21T05:45:05;1.60;;;1.50;;
44862;SDS011;30597;49.628;10.850;2023-11-21T05:47:36;1.90;;;1.70;;
44862;SDS011;30597;49.628;10.850;2023-11-21T05:50:03;0.93;;;0.90;;
44862;SDS011;30597;49.628;10.850;2023-11-21T05:52:30;1.73;;;1.40;;
44862;SDS011;30597;49.628;10.850;2023-11-21T05:54:57;1.73;;;1.63;;
44862;SDS011;30597;49.628;10.850;2023-11-21T05:57:23;1.40;;;1.30;;
44862;SDS011;30597;49.628;10.850;2023-11-21T05:59:48;1.70;;;1.40;;
44862;SDS011;30597;49.628;10.850;2023-11-21T06:02:14;2.73;;;1.30;;
44862;SDS011;30597;49.628;10.850;2023-11-21T06:04:39;1.77;;;1.67;;
44862;SDS011;30597;49.628;10.850;2023-11-21T06:07:05;2.80;;;1.60;;
44862;SDS011;30597;49.628;10.850;2023-11-21T06:09:32;1.47;;;1.30;;
44862;SDS011;30597;49.628;10.850;2023-11-21T06:11:57;1.57;;;1.33;;
44862;SDS011;30597;49.628;10.850;2023-11-21T06:14:23;1.30;;;1.20;;
44862;SDS011;30597;49.628;10.850;2023-11-21T06:16:49;1.30;;;1.20;;
44862;SDS011;30597;49.628;10.850;2023-11-21T06:19:16;1.47;;;1.37;;
44862;SDS011;30597;49.628;10.850;2023-11-21T06:21:45;1.33;;;1.23;;
44862;SDS011;30597;49.628;10.850;2023-11-21T06:24:11;1.30;;;1.20;;
44862;SDS011;30597;49.628;10.850;2023-11-21T06:26:37;1.40;;;1.30;;
44862;SDS011;30597;49.628;10.850;2023-11-21T06:29:03;1.37;;;1.23;;
44862;SDS011;30597;49.628;10.850;2023-11-21T06:31:29;1.97;;;1.37;;
44862;SDS011;30597;49.628;10.850;2023-11-21T06:33:55;1.50;;;1.40;;
44862;SDS011;30597;49.628;10.850;2023-11-21T06:36:20;1.17;;;1.07;;
44862;SDS011;30597;49.628;10.850;2023-11-21T06:38:46;1.50;;;1.40;;
44862;SDS011;30597;49.628;10.850;2023-11-21T06:41:12;1.50;;;1.40;;
44862;SDS011;30597;49.628;10.850;2023-11-21T06:43:40;1.73;;;1.30;;
44862;SDS011;30597;49.628;10.850;2023-11-21T06:46:06;1.57;;;1.47;;
44862;SDS011;30597;49.628;10.850;2023-11-21T06:48:31;1.20;;;1.10;;
44862;SDS011;30597;49.628;10.850;2023-11-21T06:50:57;1.30;;;1.20;;
44862;SDS011;30597;49.628;10.850;2023-11-21T06:53:23;1.27;;;1.07;;
44862;SDS011;30597;49.628;10.850;2023-11-21T06:55:48;1.53;;;1.30;;
44862;SDS011;30597;49.628;10.850;2023-11-21T06:58:14;1.73;;;1.63;;
44862;SDS011;30597;49.628;10.850;2023-11-21T07:00:39;1.63;;;1.53;;
44862;SDS011;30597;49.628;10.850;2023-11-21T07:03:05;1.63;;;1.23;;
44862;SDS011;30597;49.628;10.850;2023-11-21T07:05:30;1.53;;;1.43;;
44862;SDS011;30597;49.628;10.850;2023-11-21T07:07:56;1.90;;;1.80;;
44862;SDS011;30597;49.628;10.850;2023-11-21T07:10:22;1.80;;;1.70;;
44862;SDS011;30597;49.628;10.850;2023-11-21T07:12:47;1.50;;;1.40;;
44862;SDS011;30597;49.628;10.850;2023-11-21T07:15:13;1.67;;;1.57;;
44862;SDS011;30597;49.628;10.850;2023-11-21T07:17:38;1.70;;;1.60;;
44862;SDS011;30597;49.628;10.850;2023-11-21T07:20:05;1.60;;;1.43;;
44862;SDS011;30597;49.628;10.850;2023-11-21T07:22:31;1.47;;;1.37;;
44862;SDS011;30597;49.628;10.850;2023-11-21T07:24:58;1.70;;;1.60;;
44862;SDS011;30597;49.628;10.850;2023-11-21T07:27:23;1.63;;;1.53;;
44862;SDS011;30597;49.628;10.850;2023-11-21T07:29:49;1.40;;;1.30;;
44862;SDS011;30597;49.628;10.850;2023-11-21T07:32:16;1.73;;;1.50;;
44862;SDS011;30597;49.628;10.850;2023-11-21T07:34:41;1.70;;;1.60;;
44862;SDS011;30597;49.628;10.850;2023-11-21T07:37:07;1.90;;;1.60;;
44862;SDS011;30597;49.628;10.850;2023-11-21T07:39:34;1.80;;;1.53;;
44862;SDS011;30597;49.628;10.850;2023-11-21T07:42:01;1.67;;;1.57;;
44862;SDS011;30597;49.628;10.850;2023-11-21T07:44:27;1.67;;;1.40;;
44862;SDS011;30597;49.628;10.850;2023-11-21T07:46:54;1.67;;;1.57;;
44862;SDS011;30597;49.628;10.850;2023-11-21T07:49:24;1.73;;;1.63;;
44862;SDS011;30597;49.628;10.850;2023-11-21T07:51:50;2.10;;;1.90;;
44862;SDS011;30597;49.628;10.850;2023-11-21T07:54:15;2.07;;;1.40;;
44862;SDS011;30597;49.628;10.850;2023-11-21T07:56:41;1.60;;;1.50;;
44862;SDS011;30597;49.628;10.850;2023-11-21T07:59:07;2.30;;;1.87;;
44862;SDS011;30597;49.628;10.850;2023-11-21T08:01:33;1.70;;;1.37;;
44862;SDS011;30597;49.628;10.850;2023-11-21T08:03:59;1.60;;;1.50;;
44862;SDS011;30597;49.628;10.850;2023-11-21T08:06:28;1.70;;;1.53;;
44862;SDS011;30597;49.628;10.850;2023-11-21T08:08:57;2.20;;;1.97;;
44862;SDS011;30597;49.628;10.850;2023-11-21T08:11:23;2.33;;;1.50;;
44862;SDS011;30597;49.628;10.850;2023-11-21T08:13:49;2.80;;;1.73;;
44862;SDS011;30597;49.628;10.850;2023-11-21T08:16:14;1.60;;;1.50;;
44862;SDS011;30597;49.628;10.850;2023-11-21T08:18:40;1.53;;;1.43;;
44862;SDS011;30597;49.628;10.850;2023-11-21T08:21:07;1.50;;;1.40;;
44862;SDS011;30597;49.628;10.850;2023-11-21T08:23:33;2.07;;;1.33;;
44862;SDS011;30597;49.628;10.850;2023-11-21T08:25:59;1.83;;;1.43;;
44862;SDS011;30597;49.628;10.850;2023-11-21T08:28:25;1.30;;;1.20;;
44862;SDS011;30597;49.628;10.850;2023-11-21T08:30:51;1.70;;;1.60;;
44862;SDS011;30597;49.628;10.850;2023-11-21T08:33:18;2.10;;;1.50;;
44862;SDS011;30597;49.628;10.850;2023-11-21T08:35:44;1.50;;;1.40;;
44862;SDS011;30597;49.628;10.850;2023-11-21T08:38:10;2.00;;;1.50;;
44862;SDS011;30597;49.628;10.850;2023-11-21T08:40:37;1.50;;;1.40;;
44862;SDS011;30597;49.628;10.850;2023-11-21T08:43:03;1.83;;;1.73;;
44862;SDS011;30597;49.628;10.850;2023-11-21T08:45:29;1.67;;;1.57;;
44862;SDS011;30597;49.628;10.850;2023-11-21T08:47:56;1.50;;;1.40;;
44862;SDS011;30597;49.628;10.850;2023-11-21T08:50:21;2.27;;;1.50;;
44862;SDS011;30597;49.628;10.850;2023-11-21T08:52:47;1.80;;;1.70;;
44862;SDS011;30597;49.628;10.850;2023-11-21T08:55:13;1.60;;;1.50;;
44862;SDS011;30597;49.628;10.850;2023-11-21T08:57:41;1.63;;;1.20;;
44862;SDS011;30597;49.628;10.850;2023-11-21T09:00:09;1.50;;;1.40;;
44862;SDS011;30597;49.628;10.850;2023-11-21T09:02:37;1.50;;;1.40;;
44862;SDS011;30597;49.628;10.850;2023-11-21T09:05:05;1.40;;;1.30;;
44862;SDS011;30597;49.628;10.850;2023-11-21T09:07:31;1.97;;;1.60;;
44862;SDS011;30597;49.628;10.850;2023-11-21T09:09:58;1.80;;;1.70;;
44862;SDS011;30597;49.628;10.850;2023-11-21T09:12:23;1.73;;;1.63;;
44862;SDS011;30597;49.628;10.850;2023-11-21T09:14:50;1.67;;;1.57;;
44862;SDS011;30597;49.628;10.850;2023-11-21T09:17:16;1.73;;;1.37;;
44862;SDS011;30597;49.628;10.850;2023-11-21T09:19:42;1.33;;;1.23;;
44862;SDS011;30597;49.628;10.850;2023-11-21T09:22:15;2.13;;;1.93;;
44862;SDS011;30597;49.628;10.850;2023-11-21T09:24:41;1.60;;;1.50;;
44862;SDS011;30597;49.628;10.850;2023-11-21T09:27:07;1.90;;;1.60;;
44862;SDS011;30597;49.628;10.850;2023-11-21T09:29:33;2.20;;;1.60;;
44862;SDS011;30597;49.628;10.850;2023-11-21T09:31:58;1.90;;;1.80;;
44862;SDS011;30597;49.628;10.850;2023-11-21T09:34:24;1.70;;;1.60;;
44862;SDS011;30597;49.628;10.850;2023-11-21T09:36:50;2.07;;;1.77;;
44862;SDS011;30597;49.628;10.850;2023-11-21T09:39:16;2.63;;;1.57;;
44862;SDS011;30597;49.628;10.850;2023-11-21T09:41:48;2.20;;;1.57;;
44862;SDS011;30597;49.628;10.850;2023-11-21T09:44:22;1.80;;;1.70;;
44862;SDS011;30597;49.628;10.850;2023-11-21T09:46:58;1.63;;;1.53;;
44862;SDS011;30597;49.628;10.850;2023-11-21T09:49:24;1.73;;;1.57;;
44862;SDS011;30597;49.628;10.850;2023-11-21T09:51:54;2.03;;;1.80;;
44862;SDS011;30597;49.628;10.850;2023-11-21T09:54:23;1.70;;;1.60;;
44862;SDS011;30597;49.628;10.850;2023-11-21T09:56:49;2.50;;;2.07;;
44862;SDS011;30597;49.628;10.850;2023-11-21T09:59:15;1.73;;;1.60;;
44862;SDS011;30597;49.628;10.850;2023-11-21T10:01:42;1.50;;;1.40;;
44862;SDS011;30597;49.628;10.850;2023-11-21T10:04:11;1.73;;;1.60;;
44862;SDS011;30597;49.628;10.850;2023-11-21T10:06:39;1.80;;;1.70;;
44862;SDS011;30597;49.628;10.850;2023-11-21T10:09:06;2.30;;;1.67;;
44862;SDS011;30597;49.628;10.850;2023-11-21T10:11:37;2.43;;;1.87;;
44862;SDS011;30597;49.628;10.850;2023-11-21T10:14:11;2.10;;;2.00;;
44862;SDS011;30597;49.628;10.850;2023-11-21T10:16:39;1.90;;;1.80;;
44862;SDS011;30597;49.628;10.850;2023-11-21T10:19:08;3.00;;;1.93;;
44862;SDS011;30597;49.628;10.850;2023-11-21T10:21:35;1.83;;;1.70;;
44862;SDS011;30597;49.628;10.850;2023-11-21T10:24:02;1.63;;;1.53;;
44862;SDS011;30597;49.628;10.850;2023-11-21T10:26:28;2.10;;;1.90;;
44862;SDS011;30597;49.628;10.850;2023-11-21T10:29:00;1.60;;;1.50;;
44862;SDS011;30597;49.628;10.850;2023-11-21T10:31:30;1.93;;;1.83;;
44862;SDS011;30597;49.628;10.850;2023-11-21T10:36:37;2.40;;;2.20;;
44862;SDS011;30597;49.628;10.850;2023-11-21T10:39:03;2.23;;;2.07;;
44862;SDS011;30597;49.628;10.850;2023-11-21T10:41:29;2.27;;;2.07;;
44862;SDS011;30597;49.628;10.850;2023-11-21T10:43:55;2.03;;;1.93;;
44862;SDS011;30597;49.628;10.850;2023-11-21T10:46:21;2.40;;;2.20;;
44862;SDS011;30597;49.628;10.850;2023-11-21T10:48:57;2.83;;;2.23;;
44862;SDS011;30597;49.628;10.850;2023-11-21T10:51:22;1.87;;;1.77;;
44862;SDS011;30597;49.628;10.850;2023-11-21T10:53:51;2.67;;;2.17;;
44862;SDS011;30597;49.628;10.850;2023-11-21T10:56:18;2.83;;;2.13;;
44862;SDS011;30597;49.628;10.850;2023-11-21T10:58:46;2.27;;;2.07;;
44862;SDS011;30597;49.628;10.850;2023-11-21T11:01:18;2.23;;;2.00;;
44862;SDS011;30597;49.628;10.850;2023-11-21T11:03:46;3.07;;;1.90;;
44862;SDS011;30597;49.628;10.850;2023-11-21T11:06:12;2.43;;;2.23;;
44862;SDS011;30597;49.628;10.850;2023-11-21T11:08:40;2.70;;;2.50;;
44862;SDS011;30597;49.628;10.850;2023-11-21T11:11:06;2.30;;;2.10;;
44862;SDS011;30597;49.628;10.850;2023-11-21T11:13:32;2.20;;;2.00;;
44862;SDS011;30597;49.628;10.850;2023-11-21T11:15:58;2.30;;;2.10;;
44862;SDS011;30597;49.628;10.850;2023-11-21T11:18:29;2.73;;;2.40;;
44862;SDS011;30597;49.628;10.850;2023-11-21T11:20:55;2.37;;;2.17;;
44862;SDS011;30597;49.628;10.850;2023-11-21T11:23:45;2.70;;;2.50;;
44862;SDS011;30597;49.628;10.850;2023-11-21T11:34:50;2.63;;;2.43;;
44862;SDS011;30597;49.628;10.850;2023-11-21T11:37:24;3.07;;;2.53;;
44862;SDS011;30597;49.628;10.850;2023-11-21T11:39:53;2.73;;;2.53;;
44862;SDS011;30597;49.628;10.850;2023-11-21T11:42:20;2.57;;;2.00;;
44862;SDS011;30597;49.628;10.850;2023-11-21T11:44:48;2.00;;;1.80;;
44862;SDS011;30597;49.628;10.850;2023-11-21T11:47:16;1.83;;;1.73;;
44862;SDS011;30597;49.628;10.850;2023-11-21T11:50:04;2.20;;;2.10;;
44862;SDS011;30597;49.628;10.850;2023-11-21T11:55:12;2.20;;;2.10;;
44862;SDS011;30597;49.628;10.850;2023-11-21T11:57:46;2.63;;;2.17;;
44862;SDS011;30597;49.628;10.850;2023-11-21T12:02:41;2.17;;;1.97;;
44862;SDS011;30597;49.628;10.850;2023-11-21T12:05:14;2.77;;;2.27;;
44862;SDS011;30597;49.628;10.850;2023-11-21T12:08:14;2.13;;;1.93;;
44862;SDS011;30597;49.628;10.850;2023-11-21T12:10:33;2.30;;;2.10;;
44862;SDS011;30597;49.628;10.850;2023-11-21T12:13:01;1.93;;;1.77;;
44862;SDS011;30597;49.628;10.850;2023-11-21T12:15:29;2.23;;;2.03;;
44862;SDS011;30597;49.628;10.850;2023-11-21T12:17:56;2.83;;;2.10;;
44862;SDS011;30597;49.628;10.850;2023-11-21T12:20:23;3.10;;;2.53;;
44862;SDS011;30597;49.628;10.850;2023-11-21T12:22:51;2.30;;;2.10;;
44862;SDS011;30597;49.628;10.850;2023-11-21T12:25:22;1.97;;;1.87;;
44862;SDS011;30597;49.628;10.850;2023-11-21T12:27:49;2.80;;;2.60;;
44862;SDS011;30597;49.628;10.850;2023-11-21T12:30:17;2.50;;;2.30;;
44862;SDS011;30597;49.628;10.850;2023-11-21T12:32:45;2.53;;;2.07;;
44862;SDS011;30597;49.628;10.850;2023-11-21T12:35:14;2.20;;;2.00;;
44862;SDS011;30597;49.628;10.850;2023-11-21T12:37:40;2.53;;;2.33;;
44862;SDS011;30597;49.628;10.850;2023-11-21T12:40:09;2.60;;;2.40;;
44862;SDS011;30597;49.628;10.850;2023-11-21T12:42:46;1.93;;;1.70;;
44862;SDS011;30597;49.628;10.850;2023-11-21T12:48:15;2.47;;;2.33;;
44862;SDS011;30597;49.628;10.850;2023-11-21T12:50:37;2.67;;;2.23;;
44862;SDS011;30597;49.628;10.850;2023-11-21T12:53:04;2.77;;;2.47;;
44862;SDS011;30597;49.628;10.850;2023-11-21T12:55:32;4.40;;;2.17;;
44862;SDS011;30597;49.628;10.850;2023-11-21T12:57:59;2.03;;;1.93;;
44862;SDS011;30597;49.628;10.850;2023-11-21T13:00:34;2.53;;;2.20;;
44862;SDS011;30597;49.628;10.850;2023-11-21T13:03:08;2.10;;;1.90;;
44862;SDS011;30597;49.628;10.850;2023-11-21T13:05:36;2.10;;;1.90;;
44862;SDS011;30597;49.628;10.850;2023-11-21T13:08:09;2.13;;;1.93;;
44862;SDS011;30597;49.628;10.850;2023-11-21T13:10:38;2.30;;;2.10;;
44862;SDS011;30597;49.628;10.850;2023-11-21T13:13:10;2.03;;;1.83;;
44862;SDS011;30597;49.628;10.850;2023-11-21T13:18:26;1.87;;;1.73;;
44862;SDS011;30597;49.628;10.850;2023-11-21T13:20:53;2.33;;;2.13;;
44862;SDS011;30597;49.628;10.850;2023-11-21T13:23:23;2.50;;;2.30;;
44862;SDS011;30597;49.628;10.850;2023-11-21T13:25:49;2.00;;;1.80;;
44862;SDS011;30597;49.628;10.850;2023-11-21T13:28:15;2.03;;;1.80;;
44862;SDS011;30597;49.628;10.850;2023-11-21T13:30:43;4.03;;;2.20;;
44862;SDS011;30597;49.628;10.850;2023-11-21T13:33:09;2.47;;;1.67;;
44862;SDS011;30597;49.628;10.850;2023-11-21T13:35:38;1.90;;;1.80;;
44862;SDS011;30597;49.628;10.850;2023-11-21T13:38:09;1.90;;;1.80;;
44862;SDS011;30597;49.628;10.850;2023-11-21T13:40:36;2.60;;;1.97;;
44862;SDS011;30597;49.628;10.850;2023-11-21T13:43:09;2.63;;;1.90;;
44862;SDS011;30597;49.628;10.850;2023-11-21T13:45:36;2.33;;;2.13;;
44862;SDS011;30597;49.628;10.850;2023-11-21T13:48:04;2.63;;;1.53;;
44862;SDS011;30597;49.628;10.850;2023-11-21T13:50:44;2.30;;;1.77;;
44862;SDS011;30597;49.628;10.850;2023-11-21T13:53:20;1.57;;;1.47;;
44862;SDS011;30597;49.628;10.850;2023-11-21T13:55:53;1.73;;;1.63;;
44862;SDS011;30597;49.628;10.850;2023-11-21T13:58:19;1.50;;;1.40;;
44862;SDS011;30597;49.628;10.850;2023-11-21T14:01:00;1.80;;;1.70;;
44862;SDS011;30597;49.628;10.850;2023-11-21T14:03:26;1.60;;;1.47;;
44862;SDS011;30597;49.628;10.850;2023-11-21T14:06:16;1.70;;;1.50;;
44862;SDS011;30597;49.628;10.850;2023-11-21T14:08:49;1.70;;;1.60;;
44862;SDS011;30597;49.628;10.850;2023-11-21T14:11:15;2.20;;;1.70;;
44862;SDS011;30597;49.628;10.850;2023-11-21T14:13:43;2.23;;;1.60;;
44862;SDS011;30597;49.628;10.850;2023-11-21T14:16:12;2.20;;;2.00;;
44862;SDS011;30597;49.628;10.850;2023-11-21T14:18:39;3.80;;;1.67;;
44862;SDS011;30597;49.628;10.850;2023-11-21T14:21:17;2.73;;;1.80;;
44862;SDS011;30597;49.628;10.850;2023-11-21T14:23:46;1.70;;;1.60;;
44862;SDS011;30597;49.628;10.850;2023-11-21T14:26:13;1.93;;;1.73;;
44862;SDS011;30597;49.628;10.850;2023-11-21T14:28:40;1.87;;;1.60;;
44862;SDS011;30597;49.628;10.850;2023-11-21T14:31:06;1.90;;;1.50;;
44862;SDS011;30597;49.628;10.850;2023-11-21T14:33:32;1.63;;;1.53;;
44862;SDS011;30597;49.628;10.850;2023-11-21T14:35:58;2.23;;;2.00;;
44862;SDS011;30597;49.628;10.850;2023-11-21T14:38:24;2.07;;;1.87;;
44862;SDS011;30597;49.628;10.850;2023-11-21T14:40:49;2.00;;;1.90;;
44862;SDS011;30597;49.628;10.850;2023-11-21T14:43:15;2.00;;;1.80;;
44862;SDS011;30597;49.628;10.850;2023-11-21T14:45:42;2.20;;;1.70;;
44862;SDS011;30597;49.628;10.850;2023-11-21T14:48:07;1.70;;;1.60;;
44862;SDS011;30597;49.628;10.850;2023-11-21T14:50:41;1.70;;;1.60;;
44862;SDS011;30597;49.628;10.850;2023-11-21T14:53:07;2.30;;;1.90;;
44862;SDS011;30597;49.628;10.850;2023-11-21T14:55:38;1.47;;;1.37;;